Time;durP1;ratioP1;P1;durP2;ratioP2;P2;SDS_P1;SDS_P2;PMS_P1;PMS_P2;Temp;Humidity;BMP_temperature;BMP_pressure;BME280_temperature;BME280_humidity;BME280_pressure;Samples;Min_cycle;Max_cycle;Signal;HPM_P1;HPM_P2
2023/01/09 07:28:53;;;;;;;58.47;33.35;;;;;;;9.67;64.55;99222.81;5110667;27;20369;-65
2023/01/09 07:31:18;;;;;;;48.53;28.65;;;;;;;9.62;64.64;99222.97;5111190;28;20051;-64
2023/01/09 07:33:44;;;;;;;49.45;27.58;;;;;;;9.60;64.62;99215.13;5092925;28;20054;-64
2023/01/09 07:36:10;;;;;;;40.92;24.55;;;;;;;9.61;64.47;99214.25;5110866;28;20466;-64
2023/01/09 07:38:36;;;;;;;45.90;25.70;;;;;;;9.62;64.39;99217.72;5108007;28;20374;-66
2023/01/09 07:41:01;;;;;;;44.10;23.90;;;;;;;9.67;64.24;99215.78;5110875;28;20501;-65
2023/01/09 07:43:27;;;;;;;50.08;25.50;;;;;;;10.27;62.75;99208.31;5111006;28;20036;-66
2023/01/09 07:45:52;;;;;;;38.40;22.52;;;;;;;10.46;61.91;99205.84;5110990;28;20055;-65
2023/01/09 07:48:17;;;;;;;43.60;24.80;;;;;;;10.62;61.44;99209.56;5091185;28;20524;-65
2023/01/09 07:50:43;;;;;;;47.20;25.23;;;;;;;10.71;60.97;99205.69;5101015;28;20032;-65
2023/01/09 07:53:08;;;;;;;43.35;24.75;;;;;;;10.71;60.79;99198.66;5109150;28;20030;-64
2023/01/09 07:55:34;;;;;;;48.53;25.17;;;;;;;10.73;60.77;99199.47;5110920;28;20048;-65
2023/01/09 07:57:59;;;;;;;46.70;25.27;;;;;;;10.77;60.54;99195.81;5110633;28;20180;-65
2023/01/09 08:00:25;;;;;;;47.08;24.88;;;;;;;10.80;60.35;99194.81;5093607;28;20040;-65
2023/01/09 08:02:52;;;;;;;48.38;27.75;;;;;;;10.88;60.18;99194.47;5097621;28;20047;-64
2023/01/09 08:05:17;;;;;;;82.97;46.25;;;;;;;10.82;60.19;99187.72;5110416;28;20122;-65
2023/01/09 08:07:44;;;;;;;54.15;33.40;;;;;;;10.80;60.11;99197.44;5110636;28;20127;-65
2023/01/09 08:10:10;;;;;;;49.90;28.90;;;;;;;10.90;60.01;99201.41;5111105;28;20374;-65
2023/01/09 08:12:35;;;;;;;41.65;24.92;;;;;;;10.97;59.75;99188.84;5110509;28;20040;-64
2023/01/09 08:15:01;;;;;;;48.35;26.77;;;;;;;10.98;59.66;99196.66;5110216;28;20028;-65
2023/01/09 08:17:27;;;;;;;47.10;27.45;;;;;;;10.92;59.59;99203.94;5100006;28;20122;-65
2023/01/09 08:19:52;;;;;;;51.03;27.35;;;;;;;10.91;59.72;99199.63;5089816;28;20061;-64
2023/01/09 08:22:18;;;;;;;60.58;30.13;;;;;;;10.94;59.59;99199.50;5090078;28;20375;-65
2023/01/09 08:24:43;;;;;;;51.80;27.15;;;;;;;10.96;59.41;99201.13;5090090;28;20032;-64
2023/01/09 08:27:09;;;;;;;60.85;31.15;;;;;;;10.94;59.40;99202.97;5071244;28;20056;-64
2023/01/09 08:29:34;;;;;;;70.97;32.78;;;;;;;10.93;59.58;99205.66;5059869;28;20045;-64
2023/01/09 08:32:00;;;;;;;54.45;27.55;;;;;;;10.96;59.25;99201.13;5076085;28;20038;-64
2023/01/09 08:34:25;;;;;;;53.05;27.27;;;;;;;10.58;59.77;99208.81;5075866;28;20111;-65
2023/01/09 08:36:52;;;;;;;53.70;27.20;;;;;;;10.25;61.12;99203.16;5075900;28;20048;-64
2023/01/09 08:39:20;;;;;;;50.95;27.70;;;;;;;10.23;61.31;99198.81;5076075;28;20094;-64
2023/01/09 08:47:17;;;;;;;45.35;24.75;;;;;;;10.15;61.53;99180.75;5076058;28;20161;-65
2023/01/09 08:49:43;;;;;;;61.80;32.42;;;;;;;10.11;61.61;99174.75;5075876;28;20032;-65
2023/01/09 08:52:08;;;;;;;50.40;27.08;;;;;;;10.14;61.37;99172.94;5075708;28;20032;-65
2023/01/09 08:54:37;;;;;;;50.88;27.25;;;;;;;10.10;61.54;99172.19;5075798;28;20028;-64
2023/01/09 08:57:03;;;;;;;53.25;29.90;;;;;;;10.12;61.46;99172.97;5075883;28;20036;-65
2023/01/09 08:59:28;;;;;;;52.65;26.73;;;;;;;10.11;61.58;99180.00;5057606;28;20479;-64
2023/01/09 09:01:54;;;;;;;52.67;28.38;;;;;;;10.14;61.36;99188.69;5075516;28;20029;-64
2023/01/09 09:04:19;;;;;;;52.55;28.13;;;;;;;10.09;61.59;99183.59;5057810;28;20036;-64
2023/01/09 09:06:45;;;;;;;52.03;28.80;;;;;;;10.00;61.68;99181.31;5075375;28;20402;-64
2023/01/09 09:09:10;;;;;;;45.10;25.33;;;;;;;10.04;61.76;99182.91;5075450;28;20463;-64
2023/01/09 09:11:36;;;;;;;45.20;24.77;;;;;;;10.08;61.54;99190.63;5075465;28;20037;-65
2023/01/09 09:15:11;;;;;;;47.58;25.70;;;;;;;10.09;61.55;99186.22;5075348;28;20036;-65
2023/01/09 09:16:50;;;;;;;47.38;27.65;;;;;;;10.15;61.29;99190.38;5075510;28;20083;-64
2023/01/09 09:19:16;;;;;;;45.42;27.38;;;;;;;10.13;61.29;99187.81;5075472;28;20462;-65
2023/01/09 09:21:42;;;;;;;53.03;28.27;;;;;;;10.14;61.27;99192.16;5075172;28;20033;-65
2023/01/09 09:24:07;;;;;;;47.55;25.63;;;;;;;10.05;61.52;99193.38;5075196;28;20041;-65
2023/01/09 09:26:33;;;;;;;46.75;24.42;;;;;;;10.03;61.61;99186.47;5075148;28;20062;-65
2023/01/09 09:28:58;;;;;;;51.33;28.65;;;;;;;10.06;61.44;99202.09;5053902;28;20044;-65
2023/01/09 09:31:24;;;;;;;51.67;26.92;;;;;;;10.09;61.43;99197.59;5054362;28;20473;-64
2023/01/09 09:33:49;;;;;;;51.65;27.23;;;;;;;10.14;61.43;99196.56;5055211;28;20108;-64
2023/01/09 09:36:15;;;;;;;46.92;26.35;;;;;;;10.12;61.34;99194.81;5055072;28;20033;-64
2023/01/09 09:38:40;;;;;;;54.95;29.90;;;;;;;10.14;61.31;99191.31;5037063;28;20040;-64
2023/01/09 09:44:45;;;;;;;48.63;24.67;;;;;;;10.07;61.21;99188.91;5054807;28;20128;-65
2023/01/09 09:47:31;;;;;;;47.78;25.58;;;;;;;10.05;61.02;99180.25;5054772;28;20032;-64
2023/01/09 09:50:21;;;;;;;49.60;26.08;;;;;;;10.04;61.16;99177.66;5054851;28;20028;-64
2023/01/09 09:53:08;;;;;;;48.47;24.73;;;;;;;10.07;61.03;99178.41;5054846;28;20033;-64
2023/01/09 09:55:37;;;;;;;45.92;24.38;;;;;;;10.04;61.15;99177.66;5053398;28;20028;-64
2023/01/09 09:58:10;;;;;;;46.80;25.70;;;;;;;10.03;61.18;99170.72;5054861;28;20033;-64
2023/01/09 10:00:35;;;;;;;45.60;25.08;;;;;;;10.01;61.33;99168.13;5037526;28;20037;-65
2023/01/09 10:03:06;;;;;;;48.22;26.30;;;;;;;9.99;61.31;99174.38;5054303;28;20048;-65
2023/01/09 10:05:39;;;;;;;47.65;25.42;;;;;;;10.05;61.28;99174.13;5054495;28;20111;-65
2023/01/09 10:08:30;;;;;;;53.15;27.67;;;;;;;9.96;61.23;99162.22;5054304;28;20416;-64
2023/01/09 10:10:56;;;;;;;47.67;25.17;;;;;;;10.07;61.26;99162.66;5054279;28;20087;-65
2023/01/09 10:16:42;;;;;;;47.63;24.10;;;;;;;10.07;60.93;99162.66;5054466;28;20048;-65
2023/01/09 10:19:31;;;;;;;46.85;24.83;;;;;;;10.04;60.74;99162.78;5053095;28;20059;-65
2023/01/09 10:22:18;;;;;;;52.20;25.85;;;;;;;10.08;60.92;99155.66;5054341;28;20032;-65
2023/01/09 10:25:02;;;;;;;49.03;25.98;;;;;;;10.06;60.89;99150.47;5054333;28;20054;-64
2023/01/09 10:27:48;;;;;;;44.47;23.83;;;;;;;10.09;60.84;99152.97;5060444;28;20407;-64
2023/01/09 10:30:26;;;;;;;44.53;25.02;;;;;;;10.06;60.96;99153.09;5074198;28;20033;-65
2023/01/09 10:33:07;;;;;;;39.63;22.23;;;;;;;10.07;60.87;99146.06;5073940;28;20059;-65
2023/01/09 10:35:51;;;;;;;45.85;23.95;;;;;;;10.19;60.80;99142.09;5074000;28;20028;-65
2023/01/09 10:38:23;;;;;;;63.50;29.08;;;;;;;10.09;60.67;99145.09;5073858;28;20032;-64
2023/01/09 10:41:01;;;;;;;51.53;26.30;;;;;;;10.12;60.70;99142.34;5055534;28;20028;-65
2023/01/09 10:43:42;;;;;;;49.47;25.27;;;;;;;10.11;60.55;99143.25;5073553;28;20021;-64
2023/01/09 10:46:19;;;;;;;47.28;24.30;;;;;;;10.08;60.74;99142.53;5073930;28;20025;-64
2023/01/09 10:48:51;;;;;;;45.53;23.17;;;;;;;10.08;60.73;99140.75;5073892;28;20047;-64
2023/01/09 10:51:24;;;;;;;46.97;24.67;;;;;;;10.14;60.72;99137.03;5073486;28;20079;-64
2023/01/09 10:53:52;;;;;;;44.55;22.92;;;;;;;10.22;60.58;99139.38;5055639;28;20028;-64
2023/01/09 10:56:24;;;;;;;60.05;30.25;;;;;;;10.32;60.44;99130.22;5055397;28;20040;-64
2023/01/09 10:58:52;;;;;;;49.10;26.48;;;;;;;10.31;60.34;99120.66;5073569;28;20032;-65
2023/01/09 11:01:31;;;;;;;49.78;26.80;;;;;;;10.39;60.10;99110.69;5073580;28;20040;-64
2023/01/09 11:04:01;;;;;;;51.60;26.35;;;;;;;10.42;60.32;99115.81;5073311;28;20067;-65
2023/01/09 11:06:43;;;;;;;50.72;26.58;;;;;;;10.35;60.09;99116.97;5078381;28;20039;-65
2023/01/09 11:09:09;;;;;;;46.83;25.63;;;;;;;10.33;60.40;99121.41;5061751;28;20032;-66
2023/01/09 11:11:39;;;;;;;54.85;27.23;;;;;;;10.27;60.57;99112.03;5077318;28;20039;-65
2023/01/09 11:14:17;;;;;;;57.75;30.48;;;;;;;10.33;60.34;99103.94;5073507;28;20029;-65
2023/01/09 11:16:55;;;;;;;57.63;27.42;;;;;;;10.39;59.96;99115.09;5073315;28;20032;-66
2023/01/09 11:19:22;;;;;;;61.65;31.15;;;;;;;10.44;59.93;99097.34;5073430;28;20032;-65
2023/01/09 11:21:48;;;;;;;56.03;29.30;;;;;;;10.53;59.69;99100.47;5072581;28;20040;-64
2023/01/09 11:24:25;;;;;;;58.95;30.08;;;;;;;10.37;59.99;99104.63;5072270;28;20029;-65
2023/01/09 11:26:53;;;;;;;57.60;29.42;;;;;;;10.39;60.04;99102.81;5072850;28;20033;-64
2023/01/09 11:29:25;;;;;;;58.97;29.33;;;;;;;10.38;60.04;99095.84;5071657;28;20078;-64
2023/01/09 11:31:58;;;;;;;62.03;31.80;;;;;;;10.36;59.92;99106.41;5073270;28;20031;-65
2023/01/09 11:34:27;;;;;;;57.90;29.92;;;;;;;10.42;59.92;99094.81;5069910;28;20371;-64
2023/01/09 11:37:00;;;;;;;62.65;32.70;;;;;;;10.38;60.21;99102.88;5068437;28;20033;-66
2023/01/09 11:39:29;;;;;;;62.25;33.40;;;;;;;10.37;60.17;99099.38;5066085;28;20044;-65
2023/01/09 11:41:59;;;;;;;52.28;28.40;;;;;;;10.39;60.11;99109.84;5066216;28;20052;-65
2023/01/09 11:44:27;;;;;;;59.22;30.40;;;;;;;10.43;60.07;99099.13;5082797;28;20040;-66
2023/01/09 11:46:53;;;;;;;63.42;30.95;;;;;;;10.59;59.62;99102.84;5071981;28;20043;-64
2023/01/09 11:49:24;;;;;;;58.92;28.63;;;;;;;10.53;59.57;99103.09;5072928;28;20028;-64
2023/01/09 11:52:16;;;;;;;56.83;28.02;;;;;;;10.51;59.49;99104.06;5072902;28;20032;-65
2023/01/09 11:54:53;;;;;;;50.72;25.70;;;;;;;10.54;59.62;99096.94;5072803;28;20052;-65
2023/01/09 11:57:21;;;;;;;53.42;26.20;;;;;;;10.58;59.53;99095.88;5106099;28;20032;-65
2023/01/09 11:59:47;;;;;;;51.22;25.70;;;;;;;10.52;59.79;99092.66;5080226;28;20052;-65
2023/01/09 12:02:27;;;;;;;48.90;23.65;;;;;;;10.54;59.66;99091.66;5071483;28;20070;-65
2023/01/09 12:05:00;;;;;;;44.90;22.98;;;;;;;10.55;59.58;99100.41;5072806;28;20133;-64
2023/01/09 12:07:25;;;;;;;46.20;22.75;;;;;;;10.63;59.77;99097.47;5075641;28;20033;-65
2023/01/09 12:10:19;;;;;;;51.05;26.80;;;;;;;10.56;59.82;99092.44;5075971;28;20464;-65
2023/01/09 12:12:53;;;;;;;55.13;27.33;;;;;;;10.60;59.67;99086.16;5076649;28;20029;-65
2023/01/09 12:16:09;;;;;;;53.50;26.50;;;;;;;10.70;59.63;99093.66;5076311;28;20043;-64
2023/01/09 12:19:09;;;;;;;54.88;25.77;;;;;;;10.71;59.70;99082.22;4994741;28;20045;-66
2023/01/09 12:21:44;;;;;;;55.00;26.13;;;;;;;10.73;59.59;99081.25;4993310;28;20026;-65
2023/01/09 12:24:31;;;;;;;52.13;25.77;;;;;;;10.71;59.55;99082.22;5053776;28;20041;-65
2023/01/09 12:27:36;;;;;;;56.10;28.23;;;;;;;10.74;59.59;99079.47;5050885;28;20040;-64
2023/01/09 12:30:25;;;;;;;55.42;28.25;;;;;;;10.60;59.85;99078.25;5055507;28;20178;-65
2023/01/09 12:33:41;;;;;;;46.53;25.40;;;;;;;10.69;59.84;99070.91;5063862;28;20468;-65
2023/01/09 12:36:21;;;;;;;54.97;26.27;;;;;;;10.70;59.92;99077.91;4993731;28;20490;-65
2023/01/09 12:38:55;;;;;;;48.03;25.38;;;;;;;10.73;59.94;99067.22;4994692;28;20034;-65
2023/01/09 12:41:52;;;;;;;53.45;27.55;;;;;;;10.78;59.76;99068.75;5051285;28;20047;-65
2023/01/09 12:44:39;;;;;;;52.33;26.50;;;;;;;10.77;59.72;99071.44;5075864;28;20380;-65
2023/01/09 12:47:25;;;;;;;52.30;26.50;;;;;;;10.69;60.03;99066.53;5075720;28;20119;-66
2023/01/09 12:50:16;;;;;;;58.60;28.92;;;;;;;10.73;59.82;99067.22;5076045;28;20039;-63
2023/01/09 12:52:58;;;;;;;50.70;25.70;;;;;;;10.70;60.01;99062.97;5075865;28;20028;-64
2023/01/09 12:55:29;;;;;;;48.95;26.20;;;;;;;10.68;60.04;99053.44;5075953;28;20028;-65
2023/01/09 12:57:59;;;;;;;62.50;31.65;;;;;;;10.69;60.22;99055.16;5076256;28;20039;-65
2023/01/09 13:00:36;;;;;;;57.97;28.58;;;;;;;10.73;60.18;99056.72;5075773;28;20036;-65
2023/01/09 13:03:13;;;;;;;57.75;30.23;;;;;;;10.75;60.19;99049.66;5075632;28;20091;-65
2023/01/09 13:05:43;;;;;;;69.75;36.47;;;;;;;10.73;59.98;99048.84;5075765;28;20032;-65
2023/01/09 13:08:28;;;;;;;64.70;34.90;;;;;;;10.72;60.20;99041.88;5075343;28;20028;-66
2023/01/09 13:11:06;;;;;;;64.10;34.00;;;;;;;10.70;60.40;99034.09;5075763;28;20090;-65
2023/01/09 13:13:47;;;;;;;70.95;36.03;;;;;;;10.76;60.25;99035.56;5075565;28;20033;-65
2023/01/09 13:16:19;;;;;;;58.55;29.65;;;;;;;10.74;60.44;99032.19;5075509;28;20060;-65
2023/01/09 13:18:48;;;;;;;59.55;30.00;;;;;;;10.69;60.43;99029.75;5075599;28;20037;-65
2023/01/09 13:21:15;;;;;;;60.63;33.67;;;;;;;10.71;60.57;99029.69;5075326;28;20039;-65
2023/01/09 13:23:55;;;;;;;80.78;44.08;;;;;;;10.66;60.53;99029.03;5075089;28;20032;-65
2023/01/09 13:26:23;;;;;;;65.15;34.53;;;;;;;10.66;60.64;99029.03;5057460;28;20049;-65
2023/01/09 13:29:02;;;;;;;60.83;31.92;;;;;;;10.55;60.99;99027.72;5074978;28;20056;-65
2023/01/09 13:31:56;;;;;;;61.45;32.47;;;;;;;10.57;61.05;99031.13;5057675;28;20032;-66
2023/01/09 13:34:25;;;;;;;51.90;28.05;;;;;;;10.51;61.12;99031.38;5074350;28;20430;-65
2023/01/09 13:36:54;;;;;;;48.78;26.40;;;;;;;10.56;60.98;99037.28;5057431;28;20036;-65
2023/01/09 13:39:24;;;;;;;50.92;27.90;;;;;;;10.56;61.21;99032.03;5075025;28;20032;-65
2023/01/09 13:44:41;;;;;;;64.20;30.30;;;;;;;10.61;61.09;99031.84;5075138;28;20600;-65
2023/01/09 13:47:16;;;;;;;71.15;32.83;;;;;;;10.60;60.97;99030.97;5074525;28;20028;-65
2023/01/09 13:49:41;;;;;;;67.53;30.80;;;;;;;10.61;60.92;99031.84;5074857;28;20032;-65
2023/01/09 13:52:31;;;;;;;81.60;37.03;;;;;;;10.51;61.23;99028.75;5056779;28;20489;-65
2023/01/09 13:54:59;;;;;;;83.88;37.65;;;;;;;10.55;61.17;99043.47;5074480;28;20025;-65
2023/01/09 13:57:29;;;;;;;108.90;51.40;;;;;;;10.60;61.15;99043.28;5074349;28;20086;-65
2023/01/09 14:00:17;;;;;;;134.70;65.53;;;;;;;10.66;60.98;99044.78;5074705;28;20035;-66
2023/01/09 14:02:45;;;;;;;81.72;40.45;;;;;;;10.64;61.07;99041.38;5074204;28;20112;-64
2023/01/09 14:05:13;;;;;;;117.00;57.22;;;;;;;10.65;61.04;99036.03;5074253;28;20043;-65
2023/01/09 14:07:40;;;;;;;84.60;44.72;;;;;;;10.70;60.94;99038.50;5074232;28;20037;-64
2023/01/09 14:10:19;;;;;;;77.25;40.83;;;;;;;10.54;61.14;99036.53;5056249;28;20068;-64
2023/01/09 14:12:44;;;;;;;60.80;35.13;;;;;;;10.42;61.76;99042.28;5040307;28;20113;-64
2023/01/09 14:15:35;;;;;;;67.82;36.35;;;;;;;10.39;61.76;99045.03;5057126;28;20064;-65
2023/01/09 14:18:03;;;;;;;51.17;30.42;;;;;;;10.34;62.06;99036.50;5074825;28;20380;-65
2023/01/09 14:20:37;;;;;;;52.97;29.13;;;;;;;10.40;61.83;99044.13;5090334;28;20524;-65
2023/01/09 14:23:04;;;;;;;49.00;28.10;;;;;;;10.51;61.75;99046.28;5094406;28;20544;-65
2023/01/09 14:25:31;;;;;;;53.47;30.27;;;;;;;10.49;61.73;99042.88;5094229;28;20364;-65
2023/01/09 14:27:56;;;;;;;56.05;32.05;;;;;;;10.54;61.41;99049.66;5075449;28;20141;-65
2023/01/09 14:30:25;;;;;;;61.50;33.58;;;;;;;10.53;61.77;99050.56;5094196;28;20082;-65
2023/01/09 14:33:18;;;;;;;44.20;25.77;;;;;;;10.53;61.75;99047.94;5093828;28;20059;-65
2023/01/09 14:35:53;;;;;;;60.65;34.45;;;;;;;10.51;61.63;99048.94;5094166;28;20535;-65
2023/01/09 14:38:24;;;;;;;55.28;29.58;;;;;;;10.51;61.64;99046.28;5094233;28;20024;-64
2023/01/09 14:40:57;;;;;;;54.47;29.90;;;;;;;10.43;61.80;99044.00;5093948;28;20467;-64
2023/01/09 14:43:32;;;;;;;55.53;31.90;;;;;;;10.36;62.12;99043.38;5093837;28;20062;-64
2023/01/09 14:46:03;;;;;;;65.40;35.38;;;;;;;10.39;62.08;99055.53;5094205;28;20035;-64
2023/01/09 14:48:31;;;;;;;52.58;28.95;;;;;;;10.35;62.22;99048.72;5093924;28;20034;-66
2023/01/09 14:50:57;;;;;;;54.10;30.38;;;;;;;10.29;62.43;99054.22;5075831;28;20036;-65
2023/01/09 14:53:28;;;;;;;59.70;31.83;;;;;;;10.33;62.37;99059.28;5093890;28;20131;-65
2023/01/09 14:55:59;;;;;;;47.05;27.05;;;;;;;10.43;62.27;99059.75;5094290;28;20090;-65
2023/01/09 14:58:37;;;;;;;52.10;29.38;;;;;;;10.43;62.10;99065.00;5093906;28;20028;-65
2023/01/09 15:01:15;;;;;;;64.43;33.72;;;;;;;10.38;62.26;99056.47;5075763;28;20066;-65
2023/01/09 15:03:51;;;;;;;64.95;35.13;;;;;;;10.44;62.14;99061.44;5076173;28;20036;-65
2023/01/09 15:06:23;;;;;;;61.88;36.03;;;;;;;10.52;62.18;99069.84;5093575;28;20463;-65
2023/01/09 15:09:03;;;;;;;78.75;38.67;;;;;;;10.55;61.84;99072.34;5093685;28;20032;-64
2023/01/09 15:11:31;;;;;;;76.45;36.42;;;;;;;10.58;61.80;99066.97;5075502;28;20028;-65
2023/01/09 15:13:59;;;;;;;81.35;39.17;;;;;;;10.64;61.74;99065.00;5093884;28;20051;-65
2023/01/09 15:16:26;;;;;;;81.50;39.95;;;;;;;10.60;61.75;99075.63;5075784;28;20071;-64
2023/01/09 15:18:55;;;;;;;78.53;39.22;;;;;;;10.50;62.07;99071.72;5093349;28;20028;-64
2023/01/09 15:21:23;;;;;;;74.22;39.00;;;;;;;10.52;62.09;99069.84;5075421;28;20024;-64
2023/01/09 15:23:49;;;;;;;72.68;38.00;;;;;;;10.49;62.27;99083.13;5093315;28;20032;-65
2023/01/09 15:26:27;;;;;;;70.43;37.20;;;;;;;10.49;62.21;99079.63;5093559;28;20082;-65
2023/01/09 15:29:01;;;;;;;70.75;38.38;;;;;;;10.48;62.25;99078.78;5093293;28;20048;-64
2023/01/09 15:31:27;;;;;;;67.20;37.00;;;;;;;10.50;62.17;99084.84;5093837;28;20043;-65
2023/01/09 15:33:53;;;;;;;59.10;33.03;;;;;;;10.54;62.25;99083.78;5093692;28;20032;-65
2023/01/09 15:36:27;;;;;;;66.43;35.70;;;;;;;10.52;62.16;99085.63;5075266;28;20529;-65
2023/01/09 15:38:53;;;;;;;60.35;34.03;;;;;;;10.60;62.07;99088.78;5077297;28;20036;-66
2023/01/09 15:44:29;;;;;;;72.55;40.40;;;;;;;10.63;61.95;99093.06;5075151;28;20115;-65
2023/01/09 15:46:59;;;;;;;71.53;38.78;;;;;;;10.62;62.10;99090.50;5076039;28;20120;-65
2023/01/09 15:49:25;;;;;;;84.28;42.88;;;;;;;10.67;62.10;99088.53;5076742;28;20047;-65
2023/01/09 15:51:52;;;;;;;69.53;38.08;;;;;;;10.63;62.05;99082.53;5073356;28;20037;-64
2023/01/09 15:54:30;;;;;;;68.70;35.85;;;;;;;10.55;62.19;99082.00;5067724;28;20040;-63
2023/01/09 15:57:26;;;;;;;71.82;37.92;;;;;;;10.55;62.28;99089.91;5073629;28;20037;-65
2023/01/09 15:59:53;;;;;;;69.18;39.08;;;;;;;10.53;62.34;99089.97;5076696;28;20039;-66
2023/01/09 16:05:13;;;;;;;87.63;46.95;;;;;;;10.48;62.60;99089.28;5077191;28;20090;-65
2023/01/09 16:07:50;;;;;;;90.13;48.92;;;;;;;10.48;62.48;99105.03;5076782;28;20036;-65
2023/01/09 16:10:32;;;;;;;84.18;45.00;;;;;;;10.50;62.58;99102.38;5076977;28;20032;-65
2023/01/09 16:12:57;;;;;;;83.90;43.28;;;;;;;10.47;62.58;99103.34;5058604;28;20036;-65
2023/01/09 16:15:24;;;;;;;87.90;44.65;;;;;;;10.49;62.60;99096.28;5076736;28;20040;-66
2023/01/09 16:18:05;;;;;;;82.45;44.33;;;;;;;10.53;62.57;99105.72;5076365;28;20383;-65
2023/01/09 16:20:31;;;;;;;72.85;38.67;;;;;;;10.62;62.36;99106.25;5070963;28;20494;-64
2023/01/09 16:22:56;;;;;;;74.88;39.95;;;;;;;10.65;62.25;99106.09;5067617;28;20051;-65
2023/01/09 16:25:28;;;;;;;85.10;46.28;;;;;;;10.68;62.12;99098.97;5058433;28;20046;-65
2023/01/09 16:28:23;;;;;;;91.65;51.00;;;;;;;10.56;62.23;99096.84;5076227;28;20110;-65
2023/01/09 16:30:57;;;;;;;98.03;51.97;;;;;;;10.48;62.67;99098.94;5076329;28;20028;-65
2023/01/09 16:33:25;;;;;;;124.30;67.30;;;;;;;10.47;62.78;99094.63;5075790;28;20503;-66
2023/01/09 16:35:52;;;;;;;106.80;55.92;;;;;;;10.52;62.57;99095.28;5075697;28;20387;-65
2023/01/09 16:38:18;;;;;;;106.45;54.55;;;;;;;10.62;62.56;99090.50;5076235;28;20051;-65
2023/01/09 16:43:50;;;;;;;307.85;122.63;;;;;;;10.56;62.42;99097.69;5066716;28;20034;-64
2023/01/09 16:46:18;;;;;;;301.77;119.13;;;;;;;10.59;62.43;99097.56;5096146;28;20097;-66
2023/01/09 16:48:44;;;;;;;296.50;112.22;;;;;;;10.59;62.44;99092.31;5080718;28;20043;-66
2023/01/09 16:51:20;;;;;;;309.45;115.45;;;;;;;10.57;62.48;99102.06;5068349;28;20036;-64
2023/01/09 16:53:45;;;;;;;319.10;128.18;;;;;;;10.62;62.37;99101.00;5076010;28;20072;-64
2023/01/09 16:56:15;;;;;;;267.15;109.13;;;;;;;10.60;62.31;99098.44;5075835;28;20470;-64
2023/01/09 16:58:41;;;;;;;145.63;66.90;;;;;;;10.60;62.50;99099.28;5075599;28;20033;-64
2023/01/09 17:01:06;;;;;;;119.00;58.00;;;;;;;10.62;62.43;99099.22;5075865;28;20089;-66
2023/01/09 17:03:32;;;;;;;99.78;51.10;;;;;;;10.87;61.99;99114.81;5075702;28;20032;-65
2023/01/09 17:06:02;;;;;;;87.97;47.72;;;;;;;10.71;62.22;99116.38;5075766;28;20028;-66
2023/01/09 17:08:30;;;;;;;90.38;49.13;;;;;;;10.74;62.13;99118.88;5057225;28;20045;-65
2023/01/09 17:10:56;;;;;;;77.63;43.17;;;;;;;10.77;62.04;99118.72;5075779;28;20031;-64
2023/01/09 17:13:22;;;;;;;72.22;40.47;;;;;;;10.78;62.04;99107.31;5056789;28;20040;-65
2023/01/09 17:15:48;;;;;;;75.47;40.22;;;;;;;10.73;62.10;99112.78;5073721;28;20040;-63
2023/01/09 17:18:18;;;;;;;73.32;38.80;;;;;;;10.69;62.25;99113.81;5048585;28;20598;-61
2023/01/09 17:20:47;;;;;;;67.55;37.88;;;;;;;10.72;62.28;99110.19;5072245;28;20032;-63
2023/01/09 17:23:12;;;;;;;79.07;41.28;;;;;;;10.72;62.23;99118.06;5074943;28;20480;-65
2023/01/09 17:28:32;;;;;;;57.80;32.47;;;;;;;10.71;62.34;99127.72;5059783;28;20066;-64
2023/01/09 17:31:05;;;;;;;59.67;31.25;;;;;;;10.74;62.30;99126.75;5051179;28;20052;-63
2023/01/09 17:33:32;;;;;;;55.67;31.77;;;;;;;10.78;62.24;99123.94;5063418;28;20051;-62
2023/01/09 17:35:57;;;;;;;61.58;35.60;;;;;;;10.82;62.07;99128.13;5072038;28;20048;-63
2023/01/09 17:38:23;;;;;;;52.72;30.55;;;;;;;10.90;61.82;99132.22;5054706;28;20036;-63
2023/01/09 17:40:49;;;;;;;54.30;31.73;;;;;;;10.94;61.78;99136.44;5073121;28;20520;-63
2023/01/09 17:43:17;;;;;;;53.70;30.30;;;;;;;10.96;61.76;99143.31;5073064;28;20032;-63
2023/01/09 17:45:44;;;;;;;63.15;34.42;;;;;;;10.92;61.67;99146.97;5055349;28;20037;-64
2023/01/09 17:48:19;;;;;;;56.92;33.08;;;;;;;10.91;61.87;99150.53;5072701;28;20036;-65
2023/01/09 17:50:45;;;;;;;67.50;37.33;;;;;;;10.91;61.92;99149.69;5074281;28;20025;-66
2023/01/09 17:53:12;;;;;;;69.10;37.53;;;;;;;10.91;61.98;99147.91;5056984;28;20028;-66
2023/01/09 17:55:38;;;;;;;63.67;37.10;;;;;;;10.94;61.85;99139.91;5056804;28;20131;-66
2023/01/09 17:58:04;;;;;;;61.08;33.67;;;;;;;11.01;61.75;99143.09;5056726;28;20047;-66
2023/01/09 18:00:35;;;;;;;70.40;39.50;;;;;;;11.00;61.66;99141.41;5074127;28;20028;-65
2023/01/09 18:03:02;;;;;;;66.15;37.17;;;;;;;11.01;61.66;99146.63;5073996;28;20043;-65
2023/01/09 18:05:27;;;;;;;68.82;37.00;;;;;;;11.03;61.61;99141.28;5074187;28;20036;-64
2023/01/09 18:07:53;;;;;;;71.43;39.33;;;;;;;11.04;61.50;99142.97;5073942;28;20024;-65
2023/01/09 18:10:23;;;;;;;72.50;38.35;;;;;;;11.04;61.48;99148.22;5074560;28;20520;-66
2023/01/09 18:12:51;;;;;;;68.07;37.97;;;;;;;11.04;61.65;99149.09;5056145;28;20070;-67
2023/01/09 18:15:17;;;;;;;79.75;40.45;;;;;;;11.07;61.59;99145.47;5085324;28;20032;-65
2023/01/09 18:17:43;;;;;;;73.88;40.53;;;;;;;11.02;61.55;99142.22;5074311;28;20032;-64
2023/01/09 18:20:09;;;;;;;77.28;39.92;;;;;;;11.03;61.76;99149.16;5056173;28;20028;-64
2023/01/09 18:22:35;;;;;;;82.03;42.65;;;;;;;11.01;61.78;99148.34;5077476;28;20048;-64
2023/01/09 18:25:00;;;;;;;91.75;47.75;;;;;;;11.01;61.79;99145.72;5058330;28;20682;-64
2023/01/09 18:27:26;;;;;;;86.30;47.38;;;;;;;11.04;61.73;99149.09;5078935;28;20079;-64
2023/01/09 18:29:52;;;;;;;93.60;49.58;;;;;;;11.06;61.71;99149.88;5046135;28;20089;-64
2023/01/09 18:32:17;;;;;;;98.03;53.65;;;;;;;11.06;61.63;99160.41;5075578;28;20061;-64
2023/01/09 18:34:42;;;;;;;92.82;51.75;;;;;;;11.09;61.71;99160.28;5093362;28;20073;-64
2023/01/09 18:37:08;;;;;;;97.53;54.40;;;;;;;11.17;61.34;99153.81;5093582;28;20058;-65
2023/01/09 18:39:34;;;;;;;80.45;45.97;;;;;;;11.16;61.41;99155.59;5093511;28;20034;-64
2023/01/09 18:42:03;;;;;;;84.05;48.33;;;;;;;11.16;61.33;99145.06;5093264;28;20032;-64
2023/01/09 18:44:28;;;;;;;78.22;43.80;;;;;;;11.19;61.37;99149.34;5075094;28;20028;-65
2023/01/09 18:46:53;;;;;;;85.25;42.00;;;;;;;11.17;61.28;99140.66;5093640;28;20029;-65
2023/01/09 18:49:19;;;;;;;75.75;39.20;;;;;;;11.17;61.37;99140.66;5075643;28;20069;-66
2023/01/09 18:51:44;;;;;;;69.15;36.72;;;;;;;11.20;61.34;99151.06;5064181;28;20032;-63
2023/01/09 18:54:12;;;;;;;74.05;38.28;;;;;;;11.21;61.17;99152.75;5070095;28;20597;-63
2023/01/09 18:56:38;;;;;;;70.90;38.15;;;;;;;11.20;61.29;99146.66;5076327;28;20043;-64
2023/01/09 18:59:04;;;;;;;80.32;45.65;;;;;;;11.13;61.51;99157.50;5075591;28;20074;-64
2023/01/09 19:01:31;;;;;;;91.97;54.03;;;;;;;11.78;59.75;99143.19;5081651;28;20047;-63
2023/01/09 19:03:58;;;;;;;76.40;43.60;;;;;;;11.89;59.22;99145.34;5089794;28;20039;-64
2023/01/09 19:06:25;;;;;;;65.53;37.97;;;;;;;11.82;59.26;99148.25;5069614;28;20373;-65
2023/01/09 19:08:51;;;;;;;62.17;35.22;;;;;;;11.78;59.48;99149.31;5079830;28;20467;-64
2023/01/09 19:11:17;;;;;;;67.20;35.53;;;;;;;11.54;59.85;99155.69;5076659;28;20033;-63
2023/01/09 19:13:42;;;;;;;64.90;36.67;;;;;;;11.42;60.34;99153.59;5083747;28;20036;-64
2023/01/09 19:16:08;;;;;;;79.13;43.05;;;;;;;11.40;60.46;99160.69;5073314;28;20387;-64
2023/01/09 19:18:36;;;;;;;66.70;40.53;;;;;;;11.41;60.34;99167.66;5067666;28;20036;-63
2023/01/09 19:21:09;;;;;;;75.50;44.30;;;;;;;11.35;60.50;99155.66;5064999;28;20029;-64
2023/01/09 19:23:35;;;;;;;86.47;47.38;;;;;;;11.21;60.85;99166.78;5072593;28;20043;-64
2023/01/09 19:26:04;;;;;;;71.43;41.58;;;;;;;11.25;60.63;99165.72;5070916;28;20391;-63
2023/01/09 19:28:30;;;;;;;160.15;97.47;;;;;;;11.10;61.06;99169.00;5058955;28;20057;-64
2023/01/09 19:30:56;;;;;;;115.85;70.72;;;;;;;10.97;61.20;99175.69;5071188;28;20055;-64